sensor_id;sensor_type;location;lat;lon;timestamp;P1;durP1;ratioP1;P2;durP2;ratioP2
62997;SDS011;55949;52.590;7.330;2023-02-28T00:00:22;5.28;;;2.97;;
62997;SDS011;55949;52.590;7.330;2023-02-28T00:01:23;5.25;;;3.13;;
62997;SDS011;55949;52.590;7.330;2023-02-28T00:02:24;4.22;;;2.70;;
62997;SDS011;55949;52.590;7.330;2023-02-28T00:03:25;5.03;;;2.85;;
62997;SDS011;55949;52.590;7.330;2023-02-28T00:04:26;4.80;;;2.63;;
62997;SDS011;55949;52.590;7.330;2023-02-28T00:05:26;6.65;;;3.30;;
62997;SDS011;55949;52.590;7.330;2023-02-28T00:06:28;5.80;;;2.78;;
62997;SDS011;55949;52.590;7.330;2023-02-28T00:07:29;4.95;;;2.88;;
62997;SDS011;55949;52.590;7.330;2023-02-28T00:08:30;5.32;;;3.00;;
62997;SDS011;55949;52.590;7.330;2023-02-28T00:09:31;5.68;;;2.42;;
62997;SDS011;55949;52.590;7.330;2023-02-28T00:10:31;6.07;;;2.90;;
62997;SDS011;55949;52.590;7.330;2023-02-28T00:11:32;4.82;;;2.75;;
62997;SDS011;55949;52.590;7.330;2023-02-28T00:12:33;5.50;;;2.92;;
62997;SDS011;55949;52.590;7.330;2023-02-28T00:13:35;5.10;;;3.00;;
62997;SDS011;55949;52.590;7.330;2023-02-28T00:14:39;4.75;;;2.95;;
62997;SDS011;55949;52.590;7.330;2023-02-28T00:15:39;4.85;;;2.80;;
62997;SDS011;55949;52.590;7.330;2023-02-28T00:16:40;5.22;;;3.17;;
62997;SDS011;55949;52.590;7.330;2023-02-28T00:17:41;5.63;;;3.00;;
62997;SDS011;55949;52.590;7.330;2023-02-28T00:18:41;5.88;;;3.28;;
62997;SDS011;55949;52.590;7.330;2023-02-28T00:19:42;4.80;;;3.03;;
62997;SDS011;55949;52.590;7.330;2023-02-28T00:20:43;6.10;;;3.53;;
62997;SDS011;55949;52.590;7.330;2023-02-28T00:21:44;4.65;;;2.95;;
62997;SDS011;55949;52.590;7.330;2023-02-28T00:22:45;4.07;;;2.78;;
62997;SDS011;55949;52.590;7.330;2023-02-28T00:23:51;4.53;;;2.75;;
62997;SDS011;55949;52.590;7.330;2023-02-28T00:24:51;4.90;;;2.67;;
62997;SDS011;55949;52.590;7.330;2023-02-28T00:25:52;4.50;;;2.72;;
62997;SDS011;55949;52.590;7.330;2023-02-28T00:26:53;5.40;;;2.83;;
62997;SDS011;55949;52.590;7.330;2023-02-28T00:27:54;7.00;;;2.83;;
62997;SDS011;55949;52.590;7.330;2023-02-28T00:28:55;5.35;;;2.92;;
62997;SDS011;55949;52.590;7.330;2023-02-28T00:29:56;6.70;;;3.50;;
62997;SDS011;55949;52.590;7.330;2023-02-28T00:30:56;4.65;;;3.05;;
62997;SDS011;55949;52.590;7.330;2023-02-28T00:31:57;5.70;;;2.75;;
62997;SDS011;55949;52.590;7.330;2023-02-28T00:32:58;6.53;;;2.83;;
62997;SDS011;55949;52.590;7.330;2023-02-28T00:33:59;8.07;;;3.03;;
62997;SDS011;55949;52.590;7.330;2023-02-28T00:35:00;5.65;;;3.22;;
62997;SDS011;55949;52.590;7.330;2023-02-28T00:36:02;5.30;;;2.83;;
62997;SDS011;55949;52.590;7.330;2023-02-28T00:37:07;5.38;;;3.00;;
62997;SDS011;55949;52.590;7.330;2023-02-28T00:38:10;7.68;;;3.47;;
62997;SDS011;55949;52.590;7.330;2023-02-28T00:39:11;6.00;;;2.88;;
62997;SDS011;55949;52.590;7.330;2023-02-28T00:40:12;5.13;;;3.38;;
62997;SDS011;55949;52.590;7.330;2023-02-28T00:41:12;6.85;;;4.22;;
62997;SDS011;55949;52.590;7.330;2023-02-28T00:42:13;8.98;;;4.20;;
62997;SDS011;55949;52.590;7.330;2023-02-28T00:43:14;8.82;;;3.40;;
62997;SDS011;55949;52.590;7.330;2023-02-28T00:44:14;8.82;;;3.90;;
62997;SDS011;55949;52.590;7.330;2023-02-28T00:45:15;4.85;;;3.05;;
62997;SDS011;55949;52.590;7.330;2023-02-28T00:46:16;4.10;;;3.40;;
62997;SDS011;55949;52.590;7.330;2023-02-28T00:47:16;5.97;;;3.17;;
62997;SDS011;55949;52.590;7.330;2023-02-28T00:48:17;7.57;;;3.50;;
62997;SDS011;55949;52.590;7.330;2023-02-28T00:49:18;5.93;;;3.17;;
62997;SDS011;55949;52.590;7.330;2023-02-28T00:50:19;6.82;;;3.08;;
62997;SDS011;55949;52.590;7.330;2023-02-28T00:51:20;5.40;;;3.00;;
62997;SDS011;55949;52.590;7.330;2023-02-28T00:52:20;5.15;;;3.40;;
62997;SDS011;55949;52.590;7.330;2023-02-28T00:53:21;5.45;;;2.85;;
62997;SDS011;55949;52.590;7.330;2023-02-28T00:54:22;4.40;;;2.67;;
62997;SDS011;55949;52.590;7.330;2023-02-28T00:55:23;6.30;;;3.35;;
62997;SDS011;55949;52.590;7.330;2023-02-28T00:56:26;4.55;;;3.38;;
62997;SDS011;55949;52.590;7.330;2023-02-28T00:57:27;6.85;;;3.22;;
62997;SDS011;55949;52.590;7.330;2023-02-28T00:58:28;4.80;;;2.63;;
62997;SDS011;55949;52.590;7.330;2023-02-28T00:59:29;5.03;;;2.90;;
62997;SDS011;55949;52.590;7.330;2023-02-28T01:00:29;5.43;;;3.05;;
62997;SDS011;55949;52.590;7.330;2023-02-28T01:01:30;4.97;;;3.08;;
62997;SDS011;55949;52.590;7.330;2023-02-28T01:02:31;6.55;;;3.33;;
62997;SDS011;55949;52.590;7.330;2023-02-28T01:03:32;7.13;;;3.20;;
62997;SDS011;55949;52.590;7.330;2023-02-28T01:04:33;8.52;;;3.40;;
62997;SDS011;55949;52.590;7.330;2023-02-28T01:05:33;6.60;;;3.20;;
62997;SDS011;55949;52.590;7.330;2023-02-28T01:06:34;5.40;;;2.83;;
62997;SDS011;55949;52.590;7.330;2023-02-28T01:07:36;7.97;;;3.38;;
62997;SDS011;55949;52.590;7.330;2023-02-28T01:08:36;5.47;;;3.55;;
62997;SDS011;55949;52.590;7.330;2023-02-28T01:09:37;6.85;;;3.28;;
62997;SDS011;55949;52.590;7.330;2023-02-28T01:10:38;7.90;;;3.35;;
62997;SDS011;55949;52.590;7.330;2023-02-28T01:11:38;8.75;;;3.08;;
62997;SDS011;55949;52.590;7.330;2023-02-28T01:12:41;3.72;;;2.95;;
62997;SDS011;55949;52.590;7.330;2023-02-28T01:13:42;6.95;;;2.90;;
62997;SDS011;55949;52.590;7.330;2023-02-28T01:14:44;5.63;;;2.92;;
62997;SDS011;55949;52.590;7.330;2023-02-28T01:15:46;4.82;;;3.00;;
62997;SDS011;55949;52.590;7.330;2023-02-28T01:16:51;7.22;;;2.85;;
62997;SDS011;55949;52.590;7.330;2023-02-28T01:17:51;5.70;;;3.00;;
62997;SDS011;55949;52.590;7.330;2023-02-28T01:18:52;10.77;;;3.35;;
62997;SDS011;55949;52.590;7.330;2023-02-28T01:19:54;6.95;;;3.45;;
62997;SDS011;55949;52.590;7.330;2023-02-28T01:20:56;4.97;;;2.80;;
62997;SDS011;55949;52.590;7.330;2023-02-28T01:21:56;4.90;;;2.95;;
62997;SDS011;55949;52.590;7.330;2023-02-28T01:23:00;4.53;;;2.88;;
62997;SDS011;55949;52.590;7.330;2023-02-28T01:24:00;6.30;;;2.85;;
62997;SDS011;55949;52.590;7.330;2023-02-28T01:25:02;4.68;;;2.90;;
62997;SDS011;55949;52.590;7.330;2023-02-28T01:26:07;4.82;;;3.10;;
62997;SDS011;55949;52.590;7.330;2023-02-28T01:27:09;4.07;;;2.85;;
62997;SDS011;55949;52.590;7.330;2023-02-28T01:28:10;4.57;;;2.83;;
62997;SDS011;55949;52.590;7.330;2023-02-28T01:29:11;5.75;;;3.13;;
62997;SDS011;55949;52.590;7.330;2023-02-28T01:30:11;5.20;;;3.20;;
62997;SDS011;55949;52.590;7.330;2023-02-28T01:31:12;5.07;;;3.03;;
62997;SDS011;55949;52.590;7.330;2023-02-28T01:32:13;4.43;;;3.03;;
62997;SDS011;55949;52.590;7.330;2023-02-28T01:33:14;5.20;;;2.70;;
62997;SDS011;55949;52.590;7.330;2023-02-28T01:34:15;4.32;;;3.00;;
62997;SDS011;55949;52.590;7.330;2023-02-28T01:35:15;5.45;;;3.20;;
62997;SDS011;55949;52.590;7.330;2023-02-28T01:36:17;4.68;;;3.10;;
62997;SDS011;55949;52.590;7.330;2023-02-28T01:37:20;6.18;;;3.10;;
62997;SDS011;55949;52.590;7.330;2023-02-28T01:38:21;5.70;;;2.80;;
62997;SDS011;55949;52.590;7.330;2023-02-28T01:39:21;4.65;;;2.55;;
62997;SDS011;55949;52.590;7.330;2023-02-28T01:40:22;4.00;;;2.72;;
62997;SDS011;55949;52.590;7.330;2023-02-28T01:41:24;5.32;;;3.00;;
62997;SDS011;55949;52.590;7.330;2023-02-28T01:42:27;6.22;;;3.17;;
62997;SDS011;55949;52.590;7.330;2023-02-28T01:43:29;6.75;;;3.20;;
62997;SDS011;55949;52.590;7.330;2023-02-28T01:46:00;5.40;;;2.45;;
62997;SDS011;55949;52.590;7.330;2023-02-28T01:47:00;7.75;;;3.28;;
62997;SDS011;55949;52.590;7.330;2023-02-28T01:48:05;6.55;;;3.38;;
62997;SDS011;55949;52.590;7.330;2023-02-28T01:49:09;5.53;;;2.80;;
62997;SDS011;55949;52.590;7.330;2023-02-28T01:50:14;8.48;;;3.25;;
62997;SDS011;55949;52.590;7.330;2023-02-28T01:51:22;4.72;;;2.67;;
62997;SDS011;55949;52.590;7.330;2023-02-28T01:52:33;5.45;;;3.28;;
62997;SDS011;55949;52.590;7.330;2023-02-28T01:53:35;5.80;;;3.47;;
62997;SDS011;55949;52.590;7.330;2023-02-28T01:54:38;5.35;;;3.20;;
62997;SDS011;55949;52.590;7.330;2023-02-28T01:55:39;7.30;;;3.92;;
62997;SDS011;55949;52.590;7.330;2023-02-28T01:56:46;7.65;;;3.58;;
62997;SDS011;55949;52.590;7.330;2023-02-28T01:57:58;9.43;;;3.45;;
62997;SDS011;55949;52.590;7.330;2023-02-28T01:59:02;4.72;;;2.97;;
62997;SDS011;55949;52.590;7.330;2023-02-28T02:00:05;6.95;;;3.13;;
62997;SDS011;55949;52.590;7.330;2023-02-28T02:01:09;6.65;;;3.63;;
62997;SDS011;55949;52.590;7.330;2023-02-28T02:02:21;5.13;;;3.20;;
62997;SDS011;55949;52.590;7.330;2023-02-28T02:03:24;5.95;;;3.20;;
62997;SDS011;55949;52.590;7.330;2023-02-28T02:04:26;6.88;;;3.60;;
62997;SDS011;55949;52.590;7.330;2023-02-28T02:05:30;8.35;;;3.30;;
62997;SDS011;55949;52.590;7.330;2023-02-28T02:06:36;5.40;;;3.65;;
62997;SDS011;55949;52.590;7.330;2023-02-28T02:07:40;5.45;;;3.40;;
62997;SDS011;55949;52.590;7.330;2023-02-28T02:08:45;6.75;;;3.40;;
62997;SDS011;55949;52.590;7.330;2023-02-28T02:09:45;5.68;;;4.05;;
62997;SDS011;55949;52.590;7.330;2023-02-28T02:10:54;7.60;;;3.47;;
62997;SDS011;55949;52.590;7.330;2023-02-28T02:11:57;5.07;;;3.15;;
62997;SDS011;55949;52.590;7.330;2023-02-28T02:13:14;5.82;;;3.38;;
62997;SDS011;55949;52.590;7.330;2023-02-28T02:14:26;6.13;;;3.50;;
62997;SDS011;55949;52.590;7.330;2023-02-28T02:16:33;5.93;;;3.47;;
62997;SDS011;55949;52.590;7.330;2023-02-28T02:17:28;8.30;;;3.70;;
62997;SDS011;55949;52.590;7.330;2023-02-28T02:18:52;5.97;;;2.90;;
62997;SDS011;55949;52.590;7.330;2023-02-28T02:21:31;7.13;;;3.30;;
62997;SDS011;55949;52.590;7.330;2023-02-28T02:26:28;8.77;;;3.55;;
62997;SDS011;55949;52.590;7.330;2023-02-28T02:30:02;7.40;;;4.28;;
62997;SDS011;55949;52.590;7.330;2023-02-28T02:32:30;4.75;;;3.10;;
62997;SDS011;55949;52.590;7.330;2023-02-28T02:35:38;5.45;;;3.00;;
62997;SDS011;55949;52.590;7.330;2023-02-28T02:39:32;5.07;;;3.28;;
62997;SDS011;55949;52.590;7.330;2023-02-28T02:41:08;5.53;;;2.80;;
62997;SDS011;55949;52.590;7.330;2023-02-28T02:42:19;3.28;;;2.42;;
62997;SDS011;55949;52.590;7.330;2023-02-28T02:44:28;5.18;;;2.40;;
62997;SDS011;55949;52.590;7.330;2023-02-28T02:45:07;5.72;;;2.60;;
62997;SDS011;55949;52.590;7.330;2023-02-28T02:46:13;4.45;;;2.75;;
62997;SDS011;55949;52.590;7.330;2023-02-28T02:47:20;5.88;;;3.00;;
62997;SDS011;55949;52.590;7.330;2023-02-28T02:48:25;4.90;;;2.72;;
62997;SDS011;55949;52.590;7.330;2023-02-28T02:49:30;5.28;;;2.97;;
62997;SDS011;55949;52.590;7.330;2023-02-28T02:50:34;4.13;;;2.67;;
62997;SDS011;55949;52.590;7.330;2023-02-28T02:51:42;7.20;;;2.92;;
62997;SDS011;55949;52.590;7.330;2023-02-28T02:52:48;4.70;;;3.33;;
62997;SDS011;55949;52.590;7.330;2023-02-28T02:55:00;5.68;;;3.50;;
62997;SDS011;55949;52.590;7.330;2023-02-28T02:56:03;5.70;;;3.47;;
62997;SDS011;55949;52.590;7.330;2023-02-28T02:57:21;6.47;;;3.72;;
62997;SDS011;55949;52.590;7.330;2023-02-28T02:58:26;7.05;;;3.13;;
62997;SDS011;55949;52.590;7.330;2023-02-28T02:59:31;5.28;;;3.25;;
62997;SDS011;55949;52.590;7.330;2023-02-28T03:00:34;5.78;;;3.63;;
62997;SDS011;55949;52.590;7.330;2023-02-28T03:01:39;7.30;;;3.55;;
62997;SDS011;55949;52.590;7.330;2023-02-28T03:02:41;4.70;;;3.22;;
62997;SDS011;55949;52.590;7.330;2023-02-28T03:03:44;6.15;;;3.00;;
62997;SDS011;55949;52.590;7.330;2023-02-28T03:04:46;6.70;;;3.35;;
62997;SDS011;55949;52.590;7.330;2023-02-28T03:05:52;5.22;;;3.15;;
62997;SDS011;55949;52.590;7.330;2023-02-28T03:06:53;7.90;;;3.45;;
62997;SDS011;55949;52.590;7.330;2023-02-28T03:07:54;8.65;;;3.67;;
62997;SDS011;55949;52.590;7.330;2023-02-28T03:08:55;7.32;;;3.40;;
62997;SDS011;55949;52.590;7.330;2023-02-28T03:09:57;6.18;;;3.55;;
62997;SDS011;55949;52.590;7.330;2023-02-28T03:11:01;5.55;;;3.75;;
62997;SDS011;55949;52.590;7.330;2023-02-28T03:12:09;8.68;;;3.90;;
62997;SDS011;55949;52.590;7.330;2023-02-28T03:23:55;7.35;;;3.55;;
62997;SDS011;55949;52.590;7.330;2023-02-28T03:25:30;5.15;;;3.63;;
62997;SDS011;55949;52.590;7.330;2023-02-28T03:26:39;6.07;;;2.92;;
62997;SDS011;55949;52.590;7.330;2023-02-28T03:29:19;6.20;;;3.22;;
62997;SDS011;55949;52.590;7.330;2023-02-28T03:30:35;6.18;;;3.67;;
62997;SDS011;55949;52.590;7.330;2023-02-28T03:32:26;5.25;;;3.45;;
62997;SDS011;55949;52.590;7.330;2023-02-28T03:33:12;8.27;;;3.05;;
62997;SDS011;55949;52.590;7.330;2023-02-28T03:34:19;8.60;;;3.60;;
62997;SDS011;55949;52.590;7.330;2023-02-28T03:35:45;5.35;;;2.95;;
62997;SDS011;55949;52.590;7.330;2023-02-28T03:36:53;4.47;;;2.78;;
62997;SDS011;55949;52.590;7.330;2023-02-28T03:38:05;4.60;;;3.17;;
62997;SDS011;55949;52.590;7.330;2023-02-28T03:39:24;5.63;;;3.23;;
62997;SDS011;55949;52.590;7.330;2023-02-28T03:40:38;4.78;;;3.10;;
62997;SDS011;55949;52.590;7.330;2023-02-28T03:41:43;4.68;;;3.47;;
62997;SDS011;55949;52.590;7.330;2023-02-28T03:42:48;6.68;;;3.35;;
62997;SDS011;55949;52.590;7.330;2023-02-28T03:45:28;5.57;;;3.20;;
62997;SDS011;55949;52.590;7.330;2023-02-28T03:46:34;5.00;;;2.88;;
62997;SDS011;55949;52.590;7.330;2023-02-28T03:47:46;5.05;;;3.28;;
62997;SDS011;55949;52.590;7.330;2023-02-28T03:49:03;5.30;;;3.58;;
62997;SDS011;55949;52.590;7.330;2023-02-28T03:50:22;5.25;;;3.28;;
62997;SDS011;55949;52.590;7.330;2023-02-28T03:51:27;5.40;;;3.00;;
62997;SDS011;55949;52.590;7.330;2023-02-28T03:52:31;5.00;;;2.65;;
62997;SDS011;55949;52.590;7.330;2023-02-28T03:53:41;5.22;;;2.90;;
62997;SDS011;55949;52.590;7.330;2023-02-28T03:55:05;6.95;;;3.42;;
62997;SDS011;55949;52.590;7.330;2023-02-28T03:56:18;5.43;;;3.03;;
62997;SDS011;55949;52.590;7.330;2023-02-28T03:59:14;4.43;;;3.25;;
62997;SDS011;55949;52.590;7.330;2023-02-28T04:00:24;5.90;;;3.67;;
62997;SDS011;55949;52.590;7.330;2023-02-28T04:01:38;8.15;;;3.88;;
62997;SDS011;55949;52.590;7.330;2023-02-28T04:02:45;7.15;;;3.55;;
62997;SDS011;55949;52.590;7.330;2023-02-28T04:03:46;7.38;;;3.35;;
62997;SDS011;55949;52.590;7.330;2023-02-28T04:04:48;5.03;;;3.58;;
62997;SDS011;55949;52.590;7.330;2023-02-28T04:05:50;5.00;;;3.17;;
62997;SDS011;55949;52.590;7.330;2023-02-28T04:06:53;10.20;;;3.42;;
62997;SDS011;55949;52.590;7.330;2023-02-28T04:08:05;5.03;;;3.50;;
62997;SDS011;55949;52.590;7.330;2023-02-28T04:09:08;5.53;;;3.40;;
62997;SDS011;55949;52.590;7.330;2023-02-28T04:10:11;6.32;;;4.05;;
62997;SDS011;55949;52.590;7.330;2023-02-28T04:11:23;6.57;;;3.67;;
62997;SDS011;55949;52.590;7.330;2023-02-28T04:12:29;9.05;;;4.07;;
62997;SDS011;55949;52.590;7.330;2023-02-28T04:13:30;7.72;;;4.05;;
62997;SDS011;55949;52.590;7.330;2023-02-28T04:14:31;6.15;;;3.55;;
62997;SDS011;55949;52.590;7.330;2023-02-28T04:15:31;6.13;;;3.17;;
62997;SDS011;55949;52.590;7.330;2023-02-28T04:16:33;5.60;;;3.80;;
62997;SDS011;55949;52.590;7.330;2023-02-28T04:17:35;4.95;;;3.25;;
62997;SDS011;55949;52.590;7.330;2023-02-28T04:18:35;5.95;;;3.75;;
62997;SDS011;55949;52.590;7.330;2023-02-28T04:19:36;5.93;;;3.47;;
62997;SDS011;55949;52.590;7.330;2023-02-28T04:20:37;8.63;;;3.75;;
62997;SDS011;55949;52.590;7.330;2023-02-28T04:21:39;6.80;;;3.40;;
62997;SDS011;55949;52.590;7.330;2023-02-28T04:22:44;7.45;;;3.35;;
62997;SDS011;55949;52.590;7.330;2023-02-28T04:23:45;5.65;;;3.33;;
62997;SDS011;55949;52.590;7.330;2023-02-28T04:24:46;5.10;;;3.55;;
62997;SDS011;55949;52.590;7.330;2023-02-28T04:25:47;5.40;;;3.47;;
62997;SDS011;55949;52.590;7.330;2023-02-28T04:26:48;7.75;;;3.72;;
62997;SDS011;55949;52.590;7.330;2023-02-28T04:27:50;4.97;;;3.03;;
62997;SDS011;55949;52.590;7.330;2023-02-28T04:28:51;5.53;;;3.20;;
62997;SDS011;55949;52.590;7.330;2023-02-28T04:29:52;5.85;;;3.30;;
62997;SDS011;55949;52.590;7.330;2023-02-28T04:31:02;7.10;;;3.47;;
62997;SDS011;55949;52.590;7.330;2023-02-28T04:32:04;4.25;;;3.10;;
62997;SDS011;55949;52.590;7.330;2023-02-28T04:33:05;5.50;;;3.17;;
62997;SDS011;55949;52.590;7.330;2023-02-28T04:34:05;6.53;;;3.50;;
62997;SDS011;55949;52.590;7.330;2023-02-28T04:35:06;4.07;;;2.90;;
62997;SDS011;55949;52.590;7.330;2023-02-28T04:36:08;8.10;;;3.55;;
62997;SDS011;55949;52.590;7.330;2023-02-28T04:37:09;6.25;;;3.78;;
62997;SDS011;55949;52.590;7.330;2023-02-28T04:38:09;5.10;;;3.30;;
62997;SDS011;55949;52.590;7.330;2023-02-28T04:39:10;5.35;;;3.65;;
62997;SDS011;55949;52.590;7.330;2023-02-28T04:40:11;6.70;;;3.72;;
62997;SDS011;55949;52.590;7.330;2023-02-28T04:41:12;5.53;;;3.65;;
62997;SDS011;55949;52.590;7.330;2023-02-28T04:42:13;7.45;;;3.50;;
62997;SDS011;55949;52.590;7.330;2023-02-28T04:43:14;6.57;;;3.80;;
62997;SDS011;55949;52.590;7.330;2023-02-28T04:44:15;6.60;;;3.60;;
62997;SDS011;55949;52.590;7.330;2023-02-28T04:45:16;5.88;;;3.65;;
62997;SDS011;55949;52.590;7.330;2023-02-28T04:46:17;6.25;;;3.95;;
62997;SDS011;55949;52.590;7.330;2023-02-28T04:47:18;5.82;;;3.85;;
62997;SDS011;55949;52.590;7.330;2023-02-28T04:48:19;5.65;;;3.75;;
62997;SDS011;55949;52.590;7.330;2023-02-28T04:49:19;5.95;;;3.97;;
62997;SDS011;55949;52.590;7.330;2023-02-28T04:50:20;8.68;;;4.07;;
62997;SDS011;55949;52.590;7.330;2023-02-28T04:51:21;6.30;;;3.80;;
62997;SDS011;55949;52.590;7.330;2023-02-28T04:52:22;5.15;;;3.92;;
62997;SDS011;55949;52.590;7.330;2023-02-28T04:53:22;6.63;;;3.78;;
62997;SDS011;55949;52.590;7.330;2023-02-28T04:54:23;7.38;;;4.45;;
62997;SDS011;55949;52.590;7.330;2023-02-28T04:55:24;7.38;;;4.03;;
62997;SDS011;55949;52.590;7.330;2023-02-28T04:56:25;5.80;;;4.30;;
62997;SDS011;55949;52.590;7.330;2023-02-28T04:57:25;4.07;;;3.03;;
62997;SDS011;55949;52.590;7.330;2023-02-28T04:58:26;5.32;;;3.40;;
62997;SDS011;55949;52.590;7.330;2023-02-28T04:59:28;5.53;;;3.50;;
62997;SDS011;55949;52.590;7.330;2023-02-28T05:00:28;6.03;;;3.42;;
62997;SDS011;55949;52.590;7.330;2023-02-28T05:01:30;5.38;;;3.58;;
62997;SDS011;55949;52.590;7.330;2023-02-28T05:02:34;6.57;;;3.63;;
62997;SDS011;55949;52.590;7.330;2023-02-28T05:03:35;6.15;;;3.22;;
62997;SDS011;55949;52.590;7.330;2023-02-28T05:04:36;6.97;;;4.05;;
62997;SDS011;55949;52.590;7.330;2023-02-28T05:05:37;8.40;;;3.88;;
62997;SDS011;55949;52.590;7.330;2023-02-28T05:06:37;5.85;;;3.65;;
62997;SDS011;55949;52.590;7.330;2023-02-28T05:07:38;8.10;;;4.18;;
62997;SDS011;55949;52.590;7.330;2023-02-28T05:08:39;6.15;;;3.78;;
62997;SDS011;55949;52.590;7.330;2023-02-28T05:09:40;7.93;;;4.25;;
62997;SDS011;55949;52.590;7.330;2023-02-28T05:10:40;4.88;;;3.55;;
62997;SDS011;55949;52.590;7.330;2023-02-28T05:11:41;5.65;;;3.70;;
62997;SDS011;55949;52.590;7.330;2023-02-28T05:12:42;5.65;;;3.58;;
62997;SDS011;55949;52.590;7.330;2023-02-28T05:13:43;7.03;;;3.63;;
62997;SDS011;55949;52.590;7.330;2023-02-28T05:14:44;5.43;;;3.22;;
62997;SDS011;55949;52.590;7.330;2023-02-28T05:15:45;4.78;;;3.08;;
62997;SDS011;55949;52.590;7.330;2023-02-28T05:16:45;5.70;;;3.33;;
62997;SDS011;55949;52.590;7.330;2023-02-28T05:17:46;6.47;;;3.53;;
62997;SDS011;55949;52.590;7.330;2023-02-28T05:18:47;5.03;;;2.95;;
62997;SDS011;55949;52.590;7.330;2023-02-28T05:19:48;6.75;;;3.72;;
62997;SDS011;55949;52.590;7.330;2023-02-28T05:20:48;5.22;;;3.45;;
62997;SDS011;55949;52.590;7.330;2023-02-28T05:21:50;5.70;;;3.80;;
62997;SDS011;55949;52.590;7.330;2023-02-28T05:22:53;5.70;;;3.22;;
62997;SDS011;55949;52.590;7.330;2023-02-28T05:23:54;5.13;;;3.20;;
62997;SDS011;55949;52.590;7.330;2023-02-28T05:24:56;5.28;;;3.03;;
62997;SDS011;55949;52.590;7.330;2023-02-28T05:25:56;5.32;;;3.30;;
62997;SDS011;55949;52.590;7.330;2023-02-28T05:26:57;6.15;;;3.25;;
62997;SDS011;55949;52.590;7.330;2023-02-28T05:27:58;4.00;;;3.15;;
62997;SDS011;55949;52.590;7.330;2023-02-28T05:28:58;7.13;;;2.85;;
62997;SDS011;55949;52.590;7.330;2023-02-28T05:29:59;5.45;;;3.05;;
62997;SDS011;55949;52.590;7.330;2023-02-28T05:31:03;5.68;;;3.22;;
62997;SDS011;55949;52.590;7.330;2023-02-28T05:32:04;4.72;;;3.13;;
62997;SDS011;55949;52.590;7.330;2023-02-28T05:33:04;5.32;;;3.17;;
62997;SDS011;55949;52.590;7.330;2023-02-28T05:34:05;4.53;;;3.13;;
62997;SDS011;55949;52.590;7.330;2023-02-28T05:35:06;6.05;;;3.42;;
62997;SDS011;55949;52.590;7.330;2023-02-28T05:36:07;5.45;;;3.65;;
62997;SDS011;55949;52.590;7.330;2023-02-28T05:37:11;3.67;;;2.80;;
62997;SDS011;55949;52.590;7.330;2023-02-28T05:38:12;3.97;;;2.67;;
62997;SDS011;55949;52.590;7.330;2023-02-28T05:39:13;5.70;;;3.25;;
62997;SDS011;55949;52.590;7.330;2023-02-28T05:40:14;5.78;;;3.40;;
62997;SDS011;55949;52.590;7.330;2023-02-28T05:41:15;4.97;;;3.20;;
62997;SDS011;55949;52.590;7.330;2023-02-28T05:42:17;4.85;;;3.38;;
62997;SDS011;55949;52.590;7.330;2023-02-28T05:43:18;6.38;;;3.55;;
62997;SDS011;55949;52.590;7.330;2023-02-28T05:44:18;5.55;;;3.38;;
62997;SDS011;55949;52.590;7.330;2023-02-28T05:45:19;5.00;;;3.67;;
62997;SDS011;55949;52.590;7.330;2023-02-28T05:46:20;6.40;;;3.70;;
62997;SDS011;55949;52.590;7.330;2023-02-28T05:47:20;7.40;;;4.00;;
62997;SDS011;55949;52.590;7.330;2023-02-28T05:48:21;6.10;;;3.90;;
62997;SDS011;55949;52.590;7.330;2023-02-28T05:49:22;6.72;;;3.90;;
62997;SDS011;55949;52.590;7.330;2023-02-28T05:50:22;7.22;;;4.13;;
62997;SDS011;55949;52.590;7.330;2023-02-28T05:51:23;5.90;;;3.83;;
62997;SDS011;55949;52.590;7.330;2023-02-28T05:52:24;9.00;;;4.40;;
62997;SDS011;55949;52.590;7.330;2023-02-28T05:53:24;7.53;;;4.25;;
62997;SDS011;55949;52.590;7.330;2023-02-28T05:54:26;5.82;;;3.97;;
62997;SDS011;55949;52.590;7.330;2023-02-28T05:55:26;7.30;;;4.43;;
62997;SDS011;55949;52.590;7.330;2023-02-28T05:56:27;6.68;;;3.97;;
62997;SDS011;55949;52.590;7.330;2023-02-28T05:57:28;5.72;;;4.20;;
62997;SDS011;55949;52.590;7.330;2023-02-28T05:58:29;7.40;;;3.85;;
62997;SDS011;55949;52.590;7.330;2023-02-28T05:59:30;5.55;;;3.67;;
62997;SDS011;55949;52.590;7.330;2023-02-28T06:00:31;5.85;;;3.60;;
62997;SDS011;55949;52.590;7.330;2023-02-28T06:01:41;4.55;;;3.10;;
62997;SDS011;55949;52.590;7.330;2023-02-28T06:02:47;4.25;;;3.10;;
62997;SDS011;55949;52.590;7.330;2023-02-28T06:03:48;5.35;;;3.47;;
62997;SDS011;55949;52.590;7.330;2023-02-28T06:04:49;5.85;;;3.83;;
62997;SDS011;55949;52.590;7.330;2023-02-28T06:05:50;5.85;;;3.95;;
62997;SDS011;55949;52.590;7.330;2023-02-28T06:06:51;7.13;;;4.35;;
62997;SDS011;55949;52.590;7.330;2023-02-28T06:07:52;8.23;;;4.50;;
62997;SDS011;55949;52.590;7.330;2023-02-28T06:08:53;5.20;;;3.78;;
62997;SDS011;55949;52.590;7.330;2023-02-28T06:09:54;11.05;;;4.13;;
62997;SDS011;55949;52.590;7.330;2023-02-28T06:10:54;5.25;;;3.78;;
62997;SDS011;55949;52.590;7.330;2023-02-28T06:11:57;9.25;;;4.68;;
62997;SDS011;55949;52.590;7.330;2023-02-28T06:12:59;8.88;;;4.85;;
62997;SDS011;55949;52.590;7.330;2023-02-28T06:14:02;9.02;;;4.50;;
62997;SDS011;55949;52.590;7.330;2023-02-28T06:15:03;11.52;;;3.72;;
62997;SDS011;55949;52.590;7.330;2023-02-28T06:16:05;5.55;;;3.67;;
62997;SDS011;55949;52.590;7.330;2023-02-28T06:17:06;5.53;;;3.70;;
62997;SDS011;55949;52.590;7.330;2023-02-28T06:18:06;6.53;;;3.83;;
62997;SDS011;55949;52.590;7.330;2023-02-28T06:19:08;6.85;;;3.75;;
62997;SDS011;55949;52.590;7.330;2023-02-28T06:20:09;7.43;;;4.32;;
62997;SDS011;55949;52.590;7.330;2023-02-28T06:21:12;9.65;;;5.40;;
62997;SDS011;55949;52.590;7.330;2023-02-28T06:22:13;8.02;;;5.07;;
62997;SDS011;55949;52.590;7.330;2023-02-28T06:23:14;6.00;;;4.65;;
62997;SDS011;55949;52.590;7.330;2023-02-28T06:24:14;10.05;;;4.60;;
62997;SDS011;55949;52.590;7.330;2023-02-28T06:25:15;7.72;;;4.82;;
62997;SDS011;55949;52.590;7.330;2023-02-28T06:26:16;7.63;;;5.30;;
62997;SDS011;55949;52.590;7.330;2023-02-28T06:27:17;9.50;;;5.13;;
62997;SDS011;55949;52.590;7.330;2023-02-28T06:28:17;7.35;;;4.88;;
62997;SDS011;55949;52.590;7.330;2023-02-28T06:29:18;7.82;;;5.15;;
62997;SDS011;55949;52.590;7.330;2023-02-28T06:30:20;8.85;;;4.95;;
62997;SDS011;55949;52.590;7.330;2023-02-28T06:31:25;7.00;;;4.32;;
62997;SDS011;55949;52.590;7.330;2023-02-28T06:32:28;7.03;;;4.75;;
62997;SDS011;55949;52.590;7.330;2023-02-28T06:33:29;7.50;;;4.45;;
62997;SDS011;55949;52.590;7.330;2023-02-28T06:34:30;8.93;;;5.65;;
62997;SDS011;55949;52.590;7.330;2023-02-28T06:35:31;11.38;;;5.00;;
62997;SDS011;55949;52.590;7.330;2023-02-28T06:36:32;9.55;;;4.50;;
62997;SDS011;55949;52.590;7.330;2023-02-28T06:37:32;6.95;;;5.18;;
62997;SDS011;55949;52.590;7.330;2023-02-28T06:38:33;7.43;;;5.30;;
62997;SDS011;55949;52.590;7.330;2023-02-28T06:39:34;9.60;;;5.32;;
62997;SDS011;55949;52.590;7.330;2023-02-28T06:40:35;9.23;;;5.32;;
62997;SDS011;55949;52.590;7.330;2023-02-28T06:41:36;13.50;;;5.75;;
62997;SDS011;55949;52.590;7.330;2023-02-28T06:42:37;7.43;;;4.82;;
62997;SDS011;55949;52.590;7.330;2023-02-28T06:43:39;7.75;;;4.80;;
62997;SDS011;55949;52.590;7.330;2023-02-28T06:44:41;6.82;;;5.07;;
62997;SDS011;55949;52.590;7.330;2023-02-28T06:45:43;6.88;;;4.68;;
62997;SDS011;55949;52.590;7.330;2023-02-28T06:46:44;9.55;;;4.72;;
62997;SDS011;55949;52.590;7.330;2023-02-28T06:47:45;10.73;;;4.90;;
62997;SDS011;55949;52.590;7.330;2023-02-28T06:48:51;8.60;;;5.28;;
62997;SDS011;55949;52.590;7.330;2023-02-28T06:49:52;9.35;;;5.55;;
62997;SDS011;55949;52.590;7.330;2023-02-28T06:51:09;8.23;;;5.38;;
62997;SDS011;55949;52.590;7.330;2023-02-28T06:53:14;6.93;;;4.72;;
62997;SDS011;55949;52.590;7.330;2023-02-28T06:54:14;8.88;;;4.90;;
62997;SDS011;55949;52.590;7.330;2023-02-28T06:55:15;7.55;;;4.80;;